This is the latest recevied weather packets stored in our database for station/object IU7LMH-13. If no packets are shown the sender has not sent any weather packets the latest 10 day(s).
| Time | Temp. | Humidity | Pressure | Rain* | Wind** | Luminosity | Snow |
|---|---|---|---|---|---|---|---|
| 1777979858 | 19.44° C | 77% | 1016.5 hPa | 0 mm | - | - | - |
| 1777977696 | 20.56° C | 73% | 1016.5 hPa | 0 mm | - | - | - |
| 1777977458 | 20.56° C | 73% | 1016.6 hPa | 0 mm | - | - | - |
| 1777976497 | 21.11° C | 72% | 1016.6 hPa | 0 mm | - | - | - |
| 1777976378 | 20.56° C | 72% | 1016.7 hPa | 0 mm | - | - | - |
| 1777976144 | 20.56° C | 73% | 1016.5 hPa | 0 mm | - | - | - |
| 1777975178 | 20.56° C | 73% | 1016.7 hPa | 0 mm | - | - | - |
| 1777973980 | 21.11° C | 70% | 1016.9 hPa | 0 mm | - | - | - |
| 1777973859 | 21.11° C | 69% | 1016.6 hPa | 0 mm | - | - | - |
| 1777972058 | 20.56° C | 68% | 1016.8 hPa | 0 mm | - | - | - |
| 1777971817 | 21.11° C | 67% | 1016.9 hPa | 0 mm | - | - | - |
| 1777971344 | 21.11° C | 66% | 1016.7 hPa | 0 mm | - | - | - |
| 1777970978 | 20.56° C | 68% | 1016.8 hPa | 0 mm | - | - | - |
| 1777970259 | 21.11° C | 67% | 1016.8 hPa | 0 mm | - | - | - |
| 1777968578 | 21.11° C | 70% | 1016.6 hPa | 0 mm | - | - | - |
| 1777966417 | 20° C | 71% | 1016.9 hPa | 0 mm | - | - | - |
| 1777966178 | 20° C | 73% | 1017 hPa | 0 mm | - | - | - |
| 1777966058 | 20° C | 73% | 1017.1 hPa | 0 mm | - | - | - |
| 1777965578 | 19.44° C | 74% | 1017.1 hPa | 0 mm | - | - | - |
| 1777965457 | 19.44° C | 73% | 1017.1 hPa | 0 mm | - | - | - |
| 1777964741 | 18.89° C | 77% | 1017.1 hPa | 0 mm | - | - | - |
| 1777963297 | 18.33° C | 78% | 1017.1 hPa | 0 mm | - | - | - |
| 1777962578 | 18.89° C | 78% | 1017.2 hPa | 0 mm | - | - | - |
| 1777962217 | 18.33° C | 82% | 1017.1 hPa | 0 mm | - | - | - |
| 1777961617 | 17.78° C | 83% | 1017.4 hPa | 0 mm | - | - | - |
* Rain latest hour (hover to see other rain measurements)
** Current wind speed in m/s (hover to see current wind gust speed)